Time;durP1;ratioP1;P1;durP2;ratioP2;P2;SDS_P1;SDS_P2;PMS_P1;PMS_P2;Temp;Humidity;BMP_temperature;BMP_pressure;BME280_temperature;BME280_humidity;BME280_pressure;Samples;Min_cycle;Max_cycle;Signal;HPM_P1;HPM_P2
2022/03/13 00:00:15;;;;;;;53.92;25.30;;;;;;;-2.63;48.74;101497.09;5115911;28;20396;-71
2022/03/13 00:02:45;;;;;;;53.28;25.70;;;;;;;-2.64;48.59;101491.88;5100538;28;20082;-71
2022/03/13 00:05:16;;;;;;;54.22;24.13;;;;;;;-2.41;48.03;101495.66;5115899;28;20040;-71
2022/03/13 00:07:47;;;;;;;52.35;24.30;;;;;;;-2.33;48.33;101496.63;5115877;28;20473;-71
2022/03/13 00:10:17;;;;;;;49.53;25.10;;;;;;;-2.26;48.52;101494.97;5115570;28;20046;-71
2022/03/13 00:12:48;;;;;;;57.10;23.80;;;;;;;-2.46;49.26;101488.63;5115674;28;20477;-71
2022/03/13 00:15:22;;;;;;;53.67;23.92;;;;;;;-2.37;48.96;101487.00;5115811;28;20470;-70
2022/03/13 00:17:50;;;;;;;56.97;24.23;;;;;;;-2.26;48.48;101488.84;5115565;28;20071;-71
2022/03/13 00:20:22;;;;;;;51.28;24.65;;;;;;;-2.23;48.16;101491.50;5115287;28;20044;-71
2022/03/13 00:22:53;;;;;;;56.90;24.80;;;;;;;-2.34;48.46;101483.53;5114875;28;20065;-71
2022/03/13 00:25:21;;;;;;;52.70;24.48;;;;;;;-2.52;49.38;101484.19;5115304;28;20050;-71
2022/03/13 00:27:50;;;;;;;56.65;24.42;;;;;;;-2.47;49.60;101484.25;5115314;28;20404;-70
2022/03/13 00:30:18;;;;;;;51.10;24.05;;;;;;;-2.34;48.57;101488.75;5115578;28;20039;-69
2022/03/13 00:32:48;;;;;;;51.65;24.15;;;;;;;-2.36;49.35;101486.13;5115442;28;20048;-69
2022/03/13 00:35:16;;;;;;;52.67;23.52;;;;;;;-2.44;49.67;101485.16;5115542;28;20091;-69
2022/03/13 00:37:47;;;;;;;50.70;23.40;;;;;;;-2.41;49.47;101490.44;5115513;28;20043;-69
2022/03/13 00:40:17;;;;;;;51.95;24.05;;;;;;;-2.46;49.83;101489.50;5115482;28;20040;-69
2022/03/13 00:42:45;;;;;;;50.17;23.52;;;;;;;-2.46;50.00;101492.09;5115358;28;20047;-69
2022/03/13 00:45:14;;;;;;;52.70;23.88;;;;;;;-2.43;49.66;101486.91;5115073;28;20554;-69
2022/03/13 00:47:42;;;;;;;51.58;24.13;;;;;;;-2.38;48.84;101484.38;5114948;28;20048;-69
2022/03/13 00:50:11;;;;;;;50.55;24.00;;;;;;;-2.62;50.21;101479.69;5114976;28;20131;-69
2022/03/13 00:52:39;;;;;;;54.08;23.38;;;;;;;-2.64;50.60;101476.19;5115126;28;20044;-69
2022/03/13 00:55:09;;;;;;;48.70;23.30;;;;;;;-2.51;49.96;101480.75;5115057;28;20042;-70
2022/03/13 00:57:39;;;;;;;56.28;25.02;;;;;;;-2.58;49.99;101480.63;5114727;28;20434;-70
2022/03/13 01:00:10;;;;;;;57.28;26.35;;;;;;;-2.65;50.62;101474.44;5114444;28;20040;-70
2022/03/13 01:02:39;;;;;;;56.42;25.65;;;;;;;-2.43;50.41;101476.47;5114787;28;20040;-70
2022/03/13 01:05:10;;;;;;;66.20;29.52;;;;;;;-2.49;51.68;101476.41;5114616;28;20093;-70
2022/03/13 01:07:39;;;;;;;65.35;29.63;;;;;;;-2.74;52.52;101477.81;5114910;28;20452;-70
2022/03/13 01:10:13;;;;;;;68.80;29.92;;;;;;;-2.91;53.15;101469.72;5114620;28;20101;-70
2022/03/13 01:12:43;;;;;;;63.08;28.13;;;;;;;-2.91;52.89;101469.72;5114637;28;20439;-70
2022/03/13 01:15:11;;;;;;;70.65;27.67;;;;;;;-2.89;52.87;101468.03;5114461;28;20467;-70
2022/03/13 01:17:40;;;;;;;61.10;26.55;;;;;;;-2.73;51.83;101463.00;5114602;28;20508;-69
2022/03/13 01:20:16;;;;;;;59.38;27.75;;;;;;;-2.66;51.60;101472.69;5114344;28;20044;-70
2022/03/13 01:22:45;;;;;;;59.72;28.02;;;;;;;-2.59;51.53;101466.69;5114399;28;20063;-70
2022/03/13 01:25:14;;;;;;;62.75;26.77;;;;;;;-2.78;52.35;101472.53;5113873;28;20089;-70
2022/03/13 01:27:43;;;;;;;56.72;26.50;;;;;;;-2.85;52.25;101465.47;5114449;28;20122;-70
2022/03/13 01:30:14;;;;;;;58.53;25.65;;;;;;;-2.99;52.39;101474.00;5114186;28;20062;-69
2022/03/13 01:32:47;;;;;;;57.25;24.42;;;;;;;-2.93;51.88;101465.34;5114283;28;20036;-69
2022/03/13 01:35:20;;;;;;;61.25;25.35;;;;;;;-2.73;51.38;101460.41;5114183;28;20042;-70
2022/03/13 01:37:49;;;;;;;55.10;24.90;;;;;;;-2.81;51.71;101462.03;5114145;28;20035;-70
2022/03/13 01:40:20;;;;;;;56.95;25.50;;;;;;;-2.95;52.12;101462.72;5095974;28;20138;-71
2022/03/13 01:42:51;;;;;;;57.08;26.40;;;;;;;-3.06;52.69;101455.59;5114509;28;20496;-70
2022/03/13 01:45:20;;;;;;;60.55;26.60;;;;;;;-3.10;53.04;101451.19;5114355;28;20397;-71
2022/03/13 01:47:48;;;;;;;59.08;26.17;;;;;;;-3.15;53.68;101452.84;5114127;28;20042;-69
2022/03/13 01:50:18;;;;;;;55.33;25.02;;;;;;;-3.01;53.29;101449.56;5113083;28;20039;-70
2022/03/13 01:52:49;;;;;;;57.30;26.05;;;;;;;-2.82;52.50;101455.06;5114002;28;20040;-66
2022/03/13 01:55:17;;;;;;;54.92;26.00;;;;;;;-2.81;52.55;101452.44;5114207;28;20412;-69
2022/03/13 01:57:47;;;;;;;52.58;25.00;;;;;;;-2.79;52.52;101442.06;5114056;28;20126;-68
2022/03/13 02:00:20;;;;;;;54.70;24.85;;;;;;;-2.72;52.33;101451.69;5113458;28;20096;-69
2022/03/13 02:02:49;;;;;;;49.90;23.65;;;;;;;-2.76;52.33;101447.31;5113689;28;20044;-69
2022/03/13 02:05:30;;;;;;;51.75;24.50;;;;;;;-2.68;52.18;101448.28;5113675;28;20053;-70
2022/03/13 02:07:59;;;;;;;54.22;26.38;;;;;;;-2.80;52.65;101442.88;5113703;28;20118;-70
2022/03/13 02:10:27;;;;;;;53.58;25.88;;;;;;;-2.90;53.15;101442.75;5095530;28;20112;-69
2022/03/13 02:12:56;;;;;;;51.65;25.15;;;;;;;-2.79;52.93;101439.44;5113466;28;20044;-70
2022/03/13 02:15:30;;;;;;;51.97;25.48;;;;;;;-2.77;52.91;101441.22;5113838;28;20040;-69
2022/03/13 02:18:01;;;;;;;57.17;25.23;;;;;;;-2.88;53.41;101440.19;5113568;28;20044;-70
2022/03/13 02:20:29;;;;;;;59.35;25.10;;;;;;;-2.90;53.70;101437.53;5113760;28;20100;-67
2022/03/13 02:23:02;;;;;;;53.40;23.67;;;;;;;-2.90;53.46;101436.66;5113070;28;20122;-68
2022/03/13 02:25:34;;;;;;;53.80;24.08;;;;;;;-3.06;54.39;101435.59;5113546;28;20078;-68
2022/03/13 02:28:03;;;;;;;54.60;24.67;;;;;;;-3.11;54.92;101442.47;5113565;28;20055;-68
2022/03/13 02:30:34;;;;;;;53.38;24.65;;;;;;;-2.99;54.28;101437.44;5113464;28;20094;-68
2022/03/13 02:33:02;;;;;;;54.65;24.20;;;;;;;-2.98;54.40;101439.19;5113243;28;20043;-69
2022/03/13 02:35:30;;;;;;;52.30;24.33;;;;;;;-3.01;54.58;101435.66;5113222;28;20123;-68
2022/03/13 02:37:59;;;;;;;56.47;25.45;;;;;;;-3.16;55.18;101433.72;5113329;28;20092;-67
2022/03/13 02:40:31;;;;;;;50.40;24.25;;;;;;;-3.05;55.33;101431.25;5113319;28;20557;-69
2022/03/13 02:42:59;;;;;;;48.53;24.33;;;;;;;-3.19;56.11;101431.03;5113005;28;20039;-69
2022/03/13 02:45:30;;;;;;;54.22;25.25;;;;;;;-3.29;56.18;101427.41;5113652;28;20541;-68
2022/03/13 02:47:59;;;;;;;54.90;25.45;;;;;;;-3.29;57.07;101431.75;5113248;28;20411;-69
2022/03/13 02:50:27;;;;;;;59.70;26.23;;;;;;;-3.31;57.56;101433.47;5113452;28;20044;-68
2022/03/13 02:52:56;;;;;;;58.88;25.88;;;;;;;-3.34;58.04;101423.00;5113008;28;20400;-68
2022/03/13 02:55:24;;;;;;;63.38;26.90;;;;;;;-3.41;58.42;101415.94;5113778;28;20074;-68
2022/03/13 02:57:54;;;;;;;61.08;26.98;;;;;;;-3.48;59.05;101420.16;5113425;28;20050;-68
2022/03/13 03:00:39;;;;;;;52.20;25.75;;;;;;;-3.43;58.84;101417.66;5094758;28;20071;-68
2022/03/13 03:03:08;;;;;;;59.42;26.38;;;;;;;-3.46;58.67;101418.47;5116409;28;20392;-68
2022/03/13 03:05:37;;;;;;;60.72;27.67;;;;;;;-3.51;58.75;101412.31;5117140;28;20424;-68
2022/03/13 03:08:07;;;;;;;62.05;28.05;;;;;;;-3.52;58.57;101407.94;5116567;28;20044;-68
2022/03/13 03:10:36;;;;;;;61.42;27.15;;;;;;;-3.41;58.14;101415.94;5117205;28;20064;-68
2022/03/13 03:13:09;;;;;;;57.42;25.23;;;;;;;-3.51;58.45;101404.47;5116770;28;20047;-68
2022/03/13 03:15:38;;;;;;;60.28;26.88;;;;;;;-3.42;58.12;101406.34;5117229;28;20043;-68
2022/03/13 03:18:09;;;;;;;54.42;26.98;;;;;;;-3.36;58.19;101409.94;5116731;28;20124;-68
2022/03/13 03:20:38;;;;;;;56.58;25.70;;;;;;;-3.50;58.30;101401.88;5116698;28;20039;-67
2022/03/13 03:23:07;;;;;;;58.17;27.52;;;;;;;-3.48;58.60;101400.16;5116199;28;20046;-67
2022/03/13 03:25:35;;;;;;;56.22;26.08;;;;;;;-3.54;58.58;101402.72;5116873;28;20031;-67
2022/03/13 03:28:04;;;;;;;52.88;24.67;;;;;;;-3.30;57.85;101407.41;5116156;28;20061;-67
2022/03/13 03:30:34;;;;;;;60.03;25.65;;;;;;;-3.26;57.46;101400.50;5116752;28;20051;-66
2022/03/13 03:33:04;;;;;;;57.05;25.42;;;;;;;-3.40;58.20;101412.47;5116347;28;20114;-68
2022/03/13 03:35:34;;;;;;;54.83;24.65;;;;;;;-3.59;58.92;101404.34;5116715;28;20050;-67
2022/03/13 03:38:03;;;;;;;56.75;26.25;;;;;;;-3.58;59.11;101413.03;5116123;28;20130;-68
2022/03/13 03:40:34;;;;;;;58.35;26.58;;;;;;;-3.77;59.74;101412.75;5116610;28;20374;-68
2022/03/13 03:43:05;;;;;;;51.63;26.25;;;;;;;-3.80;59.86;101406.63;5116376;28;20069;-68
2022/03/13 03:45:35;;;;;;;62.55;27.05;;;;;;;-3.72;59.26;101404.16;5116525;28;20078;-65
2022/03/13 03:48:04;;;;;;;53.58;24.48;;;;;;;-3.69;58.35;101399.84;5116564;28;20039;-66
2022/03/13 03:50:32;;;;;;;55.78;23.45;;;;;;;-3.60;58.05;101394.78;5116303;28;20205;-66
2022/03/13 03:53:00;;;;;;;49.20;24.25;;;;;;;-3.70;58.49;101392.88;5116358;28;20535;-67
2022/03/13 03:55:29;;;;;;;50.75;24.33;;;;;;;-3.75;58.60;101384.13;5116315;28;20092;-68
2022/03/13 03:57:57;;;;;;;50.95;24.55;;;;;;;-3.69;57.70;101386.81;5116207;28;20469;-68
2022/03/13 04:00:26;;;;;;;53.38;24.40;;;;;;;-3.71;57.94;101385.03;5115933;28;20040;-68
2022/03/13 04:02:56;;;;;;;52.90;24.77;;;;;;;-3.81;58.08;101389.22;5115784;28;20044;-67
2022/03/13 04:05:25;;;;;;;52.60;24.13;;;;;;;-3.76;57.53;101387.59;5115806;28;20074;-67
2022/03/13 04:07:53;;;;;;;49.90;24.42;;;;;;;-3.73;57.39;101387.63;5115698;28;20044;-67
2022/03/13 04:10:22;;;;;;;51.55;25.23;;;;;;;-3.80;57.77;101388.38;5115735;28;20062;-67
2022/03/13 04:12:50;;;;;;;52.35;23.48;;;;;;;-3.78;57.84;101378.84;5115240;28;20054;-67
2022/03/13 04:15:18;;;;;;;47.28;22.95;;;;;;;-3.67;57.90;101386.81;5115577;28;20043;-67
2022/03/13 04:17:46;;;;;;;49.40;23.40;;;;;;;-3.79;58.03;101392.72;5115831;28;20089;-66
2022/03/13 04:20:16;;;;;;;51.55;23.98;;;;;;;-3.72;57.80;101391.97;5115580;28;20039;-68
2022/03/13 04:22:44;;;;;;;51.08;23.15;;;;;;;-3.76;58.02;101387.59;5115752;28;20043;-66
2022/03/13 04:25:13;;;;;;;56.42;23.95;;;;;;;-3.92;58.62;101388.16;5115069;28;20044;-68
2022/03/13 04:27:41;;;;;;;59.78;24.90;;;;;;;-3.88;58.57;101388.22;5115687;28;20105;-67
2022/03/13 04:30:11;;;;;;;52.45;24.35;;;;;;;-3.90;58.72;101383.84;5115369;28;20482;-69
2022/03/13 04:32:40;;;;;;;52.92;24.40;;;;;;;-3.97;58.90;101387.19;5115565;28;20040;-69
2022/03/13 04:35:09;;;;;;;49.53;23.00;;;;;;;-4.15;59.13;101386.06;5114883;28;20069;-66
2022/03/13 04:37:39;;;;;;;52.38;23.65;;;;;;;-4.09;59.23;101386.16;5115482;28;20460;-65
2022/03/13 04:40:08;;;;;;;51.97;23.88;;;;;;;-4.12;59.60;101378.28;5115143;28;20067;-66
2022/03/13 04:42:36;;;;;;;48.75;24.02;;;;;;;-4.03;59.45;101378.44;5115508;28;20052;-66
2022/03/13 04:45:06;;;;;;;49.40;24.23;;;;;;;-4.07;59.84;101376.63;5115098;28;20046;-71
2022/03/13 04:47:35;;;;;;;48.85;22.80;;;;;;;-4.10;60.02;101376.56;5115317;28;20066;-66
2022/03/13 04:50:04;;;;;;;53.42;24.40;;;;;;;-4.00;60.06;101385.44;5115238;28;20492;-66
2022/03/13 04:52:32;;;;;;;51.90;23.63;;;;;;;-3.93;59.74;101387.28;5115251;28;20236;-66
2022/03/13 04:55:02;;;;;;;52.05;24.13;;;;;;;-4.10;59.50;101397.44;5115269;28;20042;-66
2022/03/13 04:57:31;;;;;;;50.28;23.80;;;;;;;-4.10;59.88;101393.94;5096430;28;20101;-65
2022/03/13 04:59:59;;;;;;;52.05;23.63;;;;;;;-4.25;60.21;101391.94;5115077;28;20048;-66
2022/03/13 05:02:27;;;;;;;52.78;25.23;;;;;;;-4.16;59.95;101386.88;5114593;28;20044;-66
2022/03/13 05:04:56;;;;;;;54.70;24.45;;;;;;;-4.16;60.12;101386.88;5114998;28;20127;-66
2022/03/13 05:07:24;;;;;;;52.42;23.48;;;;;;;-4.00;59.80;101382.81;5114639;28;20100;-66
2022/03/13 05:09:52;;;;;;;54.15;24.17;;;;;;;-4.01;59.67;101386.28;5114503;28;20035;-66
2022/03/13 05:12:24;;;;;;;53.83;23.23;;;;;;;-4.09;59.97;101388.75;5114196;28;20050;-68
2022/03/13 05:14:53;;;;;;;51.17;23.90;;;;;;;-4.21;60.46;101385.94;5114766;28;20378;-68
2022/03/13 05:17:21;;;;;;;54.72;24.63;;;;;;;-4.25;60.75;101381.50;5114493;28;20040;-68
2022/03/13 05:19:49;;;;;;;54.38;24.38;;;;;;;-4.37;61.33;101381.28;5114648;28;20063;-68
2022/03/13 05:22:17;;;;;;;49.67;23.73;;;;;;;-4.44;61.76;101379.41;5114097;28;20050;-68
2022/03/13 05:24:46;;;;;;;52.85;23.60;;;;;;;-4.43;61.84;101387.28;5113571;28;20080;-69
2022/03/13 05:27:14;;;;;;;49.67;24.27;;;;;;;-4.47;62.25;101382.84;5114019;28;20056;-69
2022/03/13 05:29:44;;;;;;;51.35;24.35;;;;;;;-4.43;62.38;101392.50;5114570;28;20043;-69
2022/03/13 05:32:12;;;;;;;52.92;24.08;;;;;;;-4.48;62.67;101388.91;5114237;28;20370;-69
2022/03/13 05:34:40;;;;;;;57.28;24.58;;;;;;;-4.11;61.57;101387.84;5113955;28;20118;-69
2022/03/13 05:37:08;;;;;;;46.47;23.52;;;;;;;-4.06;61.41;101387.91;5114132;28;20043;-72
2022/03/13 05:39:37;;;;;;;50.58;23.33;;;;;;;-3.84;60.71;101394.41;5114226;28;20047;-70
2022/03/13 05:42:05;;;;;;;49.25;22.85;;;;;;;-3.77;60.13;101396.22;5114299;28;20045;-70
2022/03/13 05:44:36;;;;;;;52.88;24.23;;;;;;;-3.76;60.25;101398.00;5114194;28;20122;-70
2022/03/13 05:47:06;;;;;;;51.17;24.77;;;;;;;-3.80;60.47;101398.78;5114238;28;20036;-70
2022/03/13 05:49:34;;;;;;;48.42;24.15;;;;;;;-3.84;60.40;101410.03;5114017;28;20063;-70
2022/03/13 05:52:04;;;;;;;50.75;23.33;;;;;;;-3.98;60.94;101406.31;5114099;28;20071;-71
2022/03/13 05:54:32;;;;;;;45.00;22.75;;;;;;;-3.85;60.60;101413.50;5113746;28;20043;-71
2022/03/13 05:57:03;;;;;;;46.13;22.63;;;;;;;-3.68;60.19;101396.38;5113958;28;20039;-70
2022/03/13 05:59:31;;;;;;;49.65;22.83;;;;;;;-3.71;60.30;101400.69;5113818;28;20110;-71
2022/03/13 06:02:04;;;;;;;53.17;22.48;;;;;;;-3.67;60.06;101410.28;5113955;28;20039;-71
2022/03/13 06:04:36;;;;;;;42.08;22.17;;;;;;;-3.50;59.92;101414.06;5113753;28;20237;-71
2022/03/13 06:07:05;;;;;;;50.80;20.90;;;;;;;-3.38;59.36;101411.63;5113709;28;20049;-70
2022/03/13 06:09:33;;;;;;;46.17;21.85;;;;;;;-3.19;59.10;101403.19;5113251;28;20135;-69
2022/03/13 06:12:01;;;;;;;47.08;23.20;;;;;;;-3.01;58.79;101405.19;5113803;28;20516;-69
2022/03/13 06:14:29;;;;;;;50.60;24.05;;;;;;;-2.97;58.49;101403.53;5113499;28;20093;-68
2022/03/13 06:16:58;;;;;;;47.13;23.63;;;;;;;-2.95;58.68;101407.03;5113504;28;20045;-69
2022/03/13 06:19:26;;;;;;;44.45;22.08;;;;;;;-2.73;57.88;101405.56;5113521;28;20054;-70
2022/03/13 06:21:55;;;;;;;45.83;23.38;;;;;;;-2.63;57.33;101399.59;5095456;28;20048;-69
2022/03/13 06:24:25;;;;;;;41.40;22.10;;;;;;;-2.56;57.05;101403.16;5113163;28;20040;-69
2022/03/13 06:26:53;;;;;;;41.80;22.05;;;;;;;-2.42;56.23;101405.03;5113590;28;20110;-70
2022/03/13 06:29:22;;;;;;;40.17;21.17;;;;;;;-2.28;54.53;101420.00;5113469;28;20054;-67
2022/03/13 06:31:51;;;;;;;44.35;22.05;;;;;;;-2.37;55.00;101411.22;5113760;28;20399;-67
2022/03/13 06:34:22;;;;;;;47.60;22.30;;;;;;;-2.20;54.83;101414.00;5113480;28;20097;-69
2022/03/13 06:36:51;;;;;;;44.42;23.00;;;;;;;-2.17;54.84;101413.16;5116718;28;20480;-68
2022/03/13 06:39:21;;;;;;;41.72;22.08;;;;;;;-2.05;54.30;101415.88;5117288;28;20123;-68
2022/03/13 06:41:57;;;;;;;43.97;22.80;;;;;;;-2.02;53.65;101423.78;5117498;28;20145;-68
2022/03/13 06:44:26;;;;;;;42.30;21.73;;;;;;;-1.87;53.29;101417.81;5117158;28;20043;-69
2022/03/13 06:46:54;;;;;;;43.28;21.83;;;;;;;-1.87;52.80;101423.91;5117728;28;20373;-68
2022/03/13 06:49:22;;;;;;;48.95;22.27;;;;;;;-1.64;52.35;101431.06;5117679;28;20051;-69
2022/03/13 06:51:50;;;;;;;44.92;22.42;;;;;;;-1.65;52.85;101434.56;5117392;28;20043;-69
2022/03/13 06:54:20;;;;;;;43.72;22.92;;;;;;;-1.56;52.74;101434.63;5117235;28;20097;-70
2022/03/13 06:56:50;;;;;;;45.53;21.38;;;;;;;-1.40;52.25;101430.41;5117602;28;20044;-70
2022/03/13 06:59:18;;;;;;;47.78;23.38;;;;;;;-1.39;51.52;101424.31;5117158;28;20480;-70
2022/03/13 07:01:46;;;;;;;50.38;23.05;;;;;;;-1.35;51.32;101432.19;5117677;28;20071;-70
2022/03/13 07:04:15;;;;;;;44.55;22.63;;;;;;;-1.13;50.89;101433.22;5117186;28;20055;-78
2022/03/13 07:06:43;;;;;;;47.00;22.88;;;;;;;-1.21;51.31;101432.28;5116999;28;20039;-69
2022/03/13 07:09:11;;;;;;;42.33;22.00;;;;;;;-0.97;50.55;101439.41;5117380;28;20032;-69
2022/03/13 07:11:46;;;;;;;43.13;22.02;;;;;;;-0.85;50.10;101442.13;5117134;28;20408;-69
2022/03/13 07:14:16;;;;;;;41.88;21.90;;;;;;;-0.95;49.77;101437.69;5117236;28;20088;-69
2022/03/13 07:16:45;;;;;;;42.17;22.10;;;;;;;-0.86;49.60;101442.97;5117114;28;20131;-69
2022/03/13 07:19:13;;;;;;;39.10;20.98;;;;;;;-0.76;48.90;101449.16;5116985;28;20043;-67
2022/03/13 07:21:41;;;;;;;39.67;19.88;;;;;;;-0.91;48.69;101439.44;5116729;28;20044;-68
2022/03/13 07:24:10;;;;;;;36.70;19.77;;;;;;;-0.80;48.41;101443.00;5116722;28;20085;-70
2022/03/13 07:26:38;;;;;;;33.90;19.33;;;;;;;-0.88;48.73;101434.22;5116463;28;20038;-69
2022/03/13 07:29:08;;;;;;;37.50;19.02;;;;;;;-0.87;48.69;101436.88;5116900;28;20109;-69
2022/03/13 07:31:36;;;;;;;36.03;19.33;;;;;;;-0.94;48.39;101435.06;5097928;28;20477;-69
2022/03/13 07:34:04;;;;;;;34.92;18.77;;;;;;;-0.98;48.39;101440.28;5098345;28;20047;-70
2022/03/13 07:36:34;;;;;;;32.53;19.13;;;;;;;-0.87;48.11;101439.50;5115870;28;20035;-70
2022/03/13 07:39:03;;;;;;;33.85;17.33;;;;;;;-0.68;47.64;101437.81;5116575;28;20054;-70
2022/03/13 07:41:33;;;;;;;34.22;18.02;;;;;;;-0.50;46.50;101433.53;5116306;28;20067;-71
2022/03/13 07:44:03;;;;;;;30.33;16.63;;;;;;;-0.17;45.09;101438.88;5116274;28;20123;-70
2022/03/13 07:46:33;;;;;;;34.00;17.40;;;;;;;0.14;44.22;101436.31;5115925;28;20081;-70
2022/03/13 07:49:02;;;;;;;34.08;16.48;;;;;;;0.32;43.16;101441.59;5097900;28;20086;-70
2022/03/13 07:51:30;;;;;;;28.95;16.02;;;;;;;0.16;44.02;101435.44;5116173;28;20047;-71
2022/03/13 07:53:59;;;;;;;28.05;15.80;;;;;;;0.14;43.63;101441.56;5116302;28;20049;-70
2022/03/13 07:56:27;;;;;;;28.20;15.20;;;;;;;0.49;42.69;101437.22;5115988;28;20064;-70
2022/03/13 07:58:55;;;;;;;28.48;15.25;;;;;;;0.66;42.00;101439.81;5116178;28;20039;-69
2022/03/13 08:01:24;;;;;;;25.58;14.45;;;;;;;0.75;41.84;101433.69;5115629;28;20130;-71
2022/03/13 08:03:53;;;;;;;26.58;14.93;;;;;;;0.80;41.67;101434.56;5116160;28;20118;-71
2022/03/13 08:06:23;;;;;;;30.30;15.35;;;;;;;0.92;41.05;101439.78;5115926;28;20051;-71
2022/03/13 08:08:53;;;;;;;27.10;15.48;;;;;;;0.96;40.84;101438.91;5116014;28;20035;-71
2022/03/13 08:11:22;;;;;;;26.63;14.10;;;;;;;1.07;40.60;101437.16;5115795;28;20048;-71
2022/03/13 08:13:50;;;;;;;24.48;13.27;;;;;;;1.28;39.43;101432.72;5115808;28;20039;-71
2022/03/13 08:16:18;;;;;;;24.23;13.57;;;;;;;1.15;39.32;101445.88;5115753;28;20047;-71
2022/03/13 08:18:47;;;;;;;21.98;12.63;;;;;;;1.13;39.71;101434.50;5116055;28;20134;-71
2022/03/13 08:21:16;;;;;;;21.30;12.70;;;;;;;1.32;39.29;101434.44;5115819;28;20510;-69
2022/03/13 08:23:45;;;;;;;22.38;12.43;;;;;;;1.29;38.54;101439.72;5115038;28;20047;-70
2022/03/13 08:26:13;;;;;;;18.80;10.85;;;;;;;1.33;37.67;101429.16;5115697;28;20047;-71
2022/03/13 08:28:42;;;;;;;21.67;11.73;;;;;;;1.41;37.56;101429.13;5115599;28;20450;-70
2022/03/13 08:31:10;;;;;;;20.88;12.25;;;;;;;1.34;37.94;101423.03;5115440;28;20066;-70
2022/03/13 08:33:39;;;;;;;18.70;9.80;;;;;;;1.41;36.69;101414.25;5114839;28;20046;-69
2022/03/13 08:36:07;;;;;;;12.63;6.97;;;;;;;1.62;32.85;101418.53;5115500;28;20481;-70
2022/03/13 08:38:37;;;;;;;13.48;7.55;;;;;;;1.65;33.32;101415.03;5096645;28;20074;-70
2022/03/13 08:41:05;;;;;;;14.73;8.05;;;;;;;1.84;34.05;101419.31;5115494;28;20405;-70
2022/03/13 08:43:33;;;;;;;14.93;8.40;;;;;;;2.14;31.86;101414.72;5115055;28;20043;-70
2022/03/13 08:46:03;;;;;;;17.58;8.57;;;;;;;2.23;32.71;101412.91;5115305;28;20047;-70
2022/03/13 08:48:31;;;;;;;16.92;9.73;;;;;;;2.28;33.01;101418.97;5114802;28;20066;-70
2022/03/13 08:51:00;;;;;;;16.25;9.32;;;;;;;2.47;33.15;101410.94;5115428;28;20066;-70
2022/03/13 08:53:28;;;;;;;17.80;9.80;;;;;;;2.71;32.86;101413.38;5114649;28;20405;-71
2022/03/13 08:55:58;;;;;;;17.92;9.82;;;;;;;3.08;31.34;101415.59;5115111;28;20040;-67
2022/03/13 08:58:26;;;;;;;20.35;10.77;;;;;;;3.28;31.54;101418.91;5114708;28;20456;-68
2022/03/13 09:00:56;;;;;;;15.70;9.55;;;;;;;3.37;31.17;101410.00;5115282;28;20078;-67
2022/03/13 09:03:26;;;;;;;13.27;7.90;;;;;;;3.29;30.32;101404.84;5116144;28;20480;-77
2022/03/13 09:05:56;;;;;;;14.13;7.88;;;;;;;3.51;29.52;101409.84;5096688;28;20055;-68
2022/03/13 09:08:24;;;;;;;14.35;8.05;;;;;;;3.62;29.61;101398.25;5114912;28;20509;-69
2022/03/13 09:10:53;;;;;;;14.35;7.55;;;;;;;3.72;28.65;101388.44;5114900;28;20039;-69
2022/03/13 09:13:23;;;;;;;15.38;8.38;;;;;;;3.71;29.30;101378.78;5114875;28;20466;-69
2022/03/13 09:15:51;;;;;;;14.10;7.82;;;;;;;3.85;29.30;101363.59;5114506;28;20044;-69
2022/03/13 09:18:20;;;;;;;14.38;8.05;;;;;;;4.12;28.77;101364.09;5114560;28;20047;-69
2022/03/13 09:20:51;;;;;;;15.48;8.35;;;;;;;4.24;28.93;101380.59;5114924;28;20047;-69
2022/03/13 09:23:19;;;;;;;15.15;7.80;;;;;;;4.29;28.46;101375.25;5114146;28;20047;-69
2022/03/13 09:25:48;;;;;;;16.35;8.18;;;;;;;4.27;28.34;101377.06;5114218;28;20051;-68
2022/03/13 09:28:16;;;;;;;13.52;8.27;;;;;;;4.20;28.13;101372.75;5114527;28;20493;-68
2022/03/13 09:30:45;;;;;;;14.43;7.65;;;;;;;4.48;27.95;101358.19;5113927;28;20046;-68
2022/03/13 09:33:14;;;;;;;14.32;7.70;;;;;;;4.82;27.43;101345.22;5114398;28;20096;-68
2022/03/13 09:35:43;;;;;;;14.52;8.23;;;;;;;4.89;27.01;101356.56;5114057;28;20039;-69
2022/03/13 09:38:11;;;;;;;11.30;6.05;;;;;;;4.89;26.30;101343.31;5114194;28;20118;-69
2022/03/13 09:40:40;;;;;;;12.25;6.47;;;;;;;4.97;26.58;101344.06;5114014;28;20035;-69
2022/03/13 09:43:08;;;;;;;10.60;6.28;;;;;;;5.10;25.49;101347.31;5114215;28;20067;-69
2022/03/13 09:45:37;;;;;;;10.88;6.70;;;;;;;5.09;25.80;101346.44;5113790;28;20039;-69
2022/03/13 09:48:09;;;;;;;13.23;7.35;;;;;;;4.94;25.94;101340.63;5114337;28;20090;-69
2022/03/13 09:50:39;;;;;;;11.32;6.53;;;;;;;5.00;25.73;101344.00;5113640;28;20090;-69
2022/03/13 09:53:08;;;;;;;10.80;5.88;;;;;;;4.90;25.83;101342.44;5113593;28;20039;-69
2022/03/13 09:55:36;;;;;;;13.48;6.35;;;;;;;4.86;25.50;101346.03;5113841;28;20092;-69
2022/03/13 09:58:08;;;;;;;12.68;7.32;;;;;;;4.69;26.44;101340.19;5113891;28;20469;-69
2022/03/13 10:00:37;;;;;;;11.63;6.95;;;;;;;4.72;26.50;101348.94;5113635;28;20549;-69
2022/03/13 10:03:08;;;;;;;13.95;8.32;;;;;;;4.66;26.78;101340.25;5113909;28;20071;-69
2022/03/13 10:05:44;;;;;;;12.52;7.53;;;;;;;4.59;26.91;101340.38;5113444;28;20043;-68
2022/03/13 10:08:12;;;;;;;16.95;8.00;;;;;;;4.77;26.47;101346.22;5113900;28;20513;-68
2022/03/13 10:10:43;;;;;;;12.32;7.13;;;;;;;4.81;25.90;101345.25;5112770;28;20050;-68
2022/03/13 10:13:13;;;;;;;14.10;6.93;;;;;;;4.85;26.30;101349.59;5096150;28;20142;-68
2022/03/13 10:15:43;;;;;;;15.00;7.72;;;;;;;4.95;26.54;101340.59;5111996;28;20040;-68
2022/03/13 10:18:14;;;;;;;13.90;7.63;;;;;;;4.86;26.94;101343.41;5112460;28;20391;-69
2022/03/13 10:20:43;;;;;;;13.93;8.13;;;;;;;4.90;26.65;101345.06;5109460;28;20093;-69
2022/03/13 10:23:16;;;;;;;13.43;7.60;;;;;;;5.01;26.61;101342.22;5112282;28;20044;-70
2022/03/13 10:25:45;;;;;;;11.65;6.78;;;;;;;5.17;25.97;101341.88;5109667;28;20043;-70
2022/03/13 10:28:20;;;;;;;11.90;6.47;;;;;;;5.40;25.88;101337.88;5112450;28;20051;-70
2022/03/13 10:31:06;;;;;;;15.95;7.47;;;;;;;5.37;25.92;101343.22;5093218;28;20046;-69
2022/03/13 10:34:02;;;;;;;13.77;7.38;;;;;;;5.38;25.08;101344.97;5092873;28;20105;-69
2022/03/13 10:36:35;;;;;;;13.27;6.35;;;;;;;5.23;25.62;101335.59;5093224;28;20431;-67
2022/03/13 10:39:11;;;;;;;11.25;5.78;;;;;;;5.45;23.94;101338.66;5092876;28;20404;-70
2022/03/13 10:41:45;;;;;;;11.43;6.03;;;;;;;5.48;24.40;101335.94;5093029;28;20036;-68
2022/03/13 10:44:19;;;;;;;10.50;5.57;;;;;;;5.39;24.38;101330.84;5093218;28;20047;-68
2022/03/13 10:46:53;;;;;;;11.13;5.50;;;;;;;5.62;23.37;101339.16;5092652;28;20051;-68
2022/03/13 10:49:40;;;;;;;10.77;6.00;;;;;;;5.66;23.70;101338.16;5092979;28;20044;-66
2022/03/13 10:52:30;;;;;;;12.50;6.15;;;;;;;5.71;23.80;101333.66;5093167;28;20048;-68
2022/03/13 10:55:20;;;;;;;11.48;5.78;;;;;;;5.62;23.42;101331.22;5090710;28;20048;-68
2022/03/13 10:57:51;;;;;;;11.32;6.40;;;;;;;5.56;24.15;101323.41;5092603;28;20040;-67
2022/03/13 11:00:21;;;;;;;11.30;6.25;;;;;;;5.59;24.25;101325.97;5093119;28;20046;-67
2022/03/13 11:02:50;;;;;;;8.68;5.55;;;;;;;5.63;22.53;101317.06;5092785;28;20040;-68
2022/03/13 11:05:20;;;;;;;9.27;5.28;;;;;;;5.81;22.84;101325.50;5092995;28;20047;-67
2022/03/13 11:07:53;;;;;;;9.85;5.97;;;;;;;5.99;23.11;101314.50;5092420;28;20044;-67
2022/03/13 11:10:21;;;;;;;11.88;5.90;;;;;;;5.92;23.59;101318.19;5092940;28;20048;-67
2022/03/13 11:12:51;;;;;;;8.93;5.53;;;;;;;5.87;23.97;101317.38;5092555;28;20119;-67
2022/03/13 11:15:20;;;;;;;11.98;6.00;;;;;;;5.89;23.72;101299.72;5092764;28;20464;-67
2022/03/13 11:17:50;;;;;;;11.73;6.25;;;;;;;6.05;23.64;101311.69;5092505;28;20444;-68
2022/03/13 11:20:22;;;;;;;10.27;6.03;;;;;;;5.93;23.88;101290.81;5091588;28;20056;-67
2022/03/13 11:22:50;;;;;;;10.95;6.35;;;;;;;6.05;23.27;101301.09;5093837;28;20040;-68
2022/03/13 11:25:23;;;;;;;;;;;;;;;6.24;23.00;101301.50;5096462;28;20051;-67